createdAt,value
2017-06-29T00:01:02.184Z,996.73
2017-06-29T00:02:24.608Z,996.77
2017-06-29T00:03:46.104Z,996.75
2017-06-29T00:05:08.577Z,996.76
2017-06-29T00:06:30.826Z,996.82
2017-06-29T00:07:53.265Z,996.83
2017-06-29T00:09:15.081Z,996.85
2017-06-29T00:10:36.948Z,996.89
2017-06-29T00:11:59.089Z,996.89
2017-06-29T00:13:21.889Z,996.9
2017-06-29T00:14:43.825Z,996.84
2017-06-29T00:16:05.959Z,996.83
2017-06-29T00:17:27.804Z,996.81
2017-06-29T00:18:50.610Z,996.82
2017-06-29T00:20:12.764Z,996.79
2017-06-29T00:21:34.903Z,996.78
2017-06-29T00:22:56.495Z,996.78
2017-06-29T00:24:18.555Z,996.74
2017-06-29T00:25:40.396Z,996.72
2017-06-29T00:27:01.904Z,996.75
2017-06-29T00:28:24.354Z,996.73
2017-06-29T00:29:45.850Z,996.74
2017-06-29T00:31:08.303Z,996.72
2017-06-29T00:32:30.435Z,996.66
2017-06-29T00:33:52.588Z,996.65
2017-06-29T00:35:14.396Z,996.63
2017-06-29T00:36:36.822Z,996.61
2017-06-29T00:37:58.694Z,996.62
2017-06-29T00:39:20.860Z,996.62
2017-06-29T00:40:43.700Z,996.64
2017-06-29T00:42:05.512Z,996.61
2017-06-29T00:43:27.018Z,996.64
2017-06-29T00:44:49.456Z,996.64
2017-06-29T00:46:11.700Z,996.59
2017-06-29T00:47:33.525Z,996.62
2017-06-29T00:48:55.756Z,996.63
2017-06-29T00:50:18.214Z,996.65
2017-06-29T00:51:40.653Z,996.64
2017-06-29T00:53:03.089Z,996.67
2017-06-29T00:54:24.909Z,996.73
2017-06-29T00:55:47.056Z,996.8
2017-06-29T00:57:09.017Z,996.82
2017-06-29T00:58:30.505Z,996.83
2017-06-29T00:59:52.967Z,996.78
2017-06-29T01:01:15.388Z,996.8
2017-06-29T01:02:37.514Z,996.79
2017-06-29T01:03:59.331Z,996.74
2017-06-29T01:05:21.212Z,996.69
2017-06-29T01:06:42.757Z,996.71
2017-06-29T01:08:05.374Z,996.71
2017-06-29T01:09:26.614Z,996.74
2017-06-29T01:10:48.753Z,996.77
2017-06-29T01:12:10.875Z,996.8
2017-06-29T01:13:33.814Z,996.78
2017-06-29T01:14:55.950Z,996.77
2017-06-29T01:16:18.361Z,996.84
2017-06-29T01:17:40.244Z,996.85
2017-06-29T01:19:03.073Z,996.83
2017-06-29T01:20:24.894Z,996.84
2017-06-29T01:21:46.711Z,996.79
2017-06-29T01:23:08.896Z,996.83
2017-06-29T01:24:31.090Z,996.79
2017-06-29T01:25:53.028Z,996.84
2017-06-29T01:27:14.514Z,996.83
2017-06-29T01:28:36.644Z,996.93
2017-06-29T01:29:59.146Z,996.94
2017-06-29T01:31:20.966Z,996.97
2017-06-29T01:32:42.519Z,996.96
2017-06-29T01:34:04.652Z,996.94
2017-06-29T01:35:26.882Z,996.99
2017-06-29T01:36:48.716Z,997.01
2017-06-29T01:38:10.976Z,996.97
2017-06-29T01:39:33.133Z,997
2017-06-29T01:40:55.392Z,997.03
2017-06-29T01:42:17.216Z,997.08
2017-06-29T01:43:39.465Z,997.07
2017-06-29T01:45:00.962Z,997.04
2017-06-29T01:46:23.333Z,997.07
2017-06-29T01:47:44.601Z,997.08
2017-06-29T01:49:07.106Z,997.03
2017-06-29T01:50:29.243Z,997.04
2017-06-29T01:51:51.712Z,997
2017-06-29T01:53:13.539Z,996.95
2017-06-29T01:54:36.184Z,996.92
2017-06-29T01:55:58.660Z,996.86
2017-06-29T01:57:20.563Z,996.94
2017-06-29T01:58:42.086Z,996.94
2017-06-29T02:00:04.575Z,996.93
2017-06-29T02:01:26.443Z,996.92
2017-06-29T02:02:48.624Z,996.9
2017-06-29T02:04:10.976Z,996.95
2017-06-29T02:05:33.214Z,996.97
2017-06-29T02:06:55.366Z,996.93
2017-06-29T02:08:17.864Z,996.94
2017-06-29T02:09:39.355Z,996.91
2017-06-29T02:11:01.500Z,996.93
2017-06-29T02:12:22.685Z,996.92
2017-06-29T02:13:45.474Z,996.94
2017-06-29T02:15:07.986Z,996.91
2017-06-29T02:16:30.110Z,996.88
2017-06-29T02:17:51.605Z,996.93
2017-06-29T02:19:14.091Z,996.9
2017-06-29T02:20:35.914Z,996.91
2017-06-29T02:21:58.043Z,996.9
2017-06-29T02:23:19.917Z,996.89
2017-06-29T02:24:42.322Z,996.93
2017-06-29T02:26:04.517Z,996.95
2017-06-29T02:27:26.355Z,996.94
2017-06-29T02:28:48.495Z,996.94
2017-06-29T02:30:10.374Z,996.98
2017-06-29T02:31:32.546Z,996.91
2017-06-29T02:32:55.024Z,996.91
2017-06-29T02:34:16.824Z,996.9
2017-06-29T02:35:39.365Z,996.92
2017-06-29T02:37:01.485Z,996.94
2017-06-29T02:38:23.285Z,996.94
2017-06-29T02:39:45.789Z,996.96
2017-06-29T02:41:07.955Z,996.95
2017-06-29T02:42:29.770Z,996.97
2017-06-29T02:43:51.625Z,997
2017-06-29T02:45:13.462Z,997
2017-06-29T02:46:35.572Z,997.01
2017-06-29T02:47:57.383Z,997.07
2017-06-29T02:49:18.925Z,997.09
2017-06-29T02:50:40.724Z,997.08
2017-06-29T02:52:03.212Z,997.12
2017-06-29T02:53:25.033Z,997.06
2017-06-29T02:54:46.544Z,997.01
2017-06-29T02:56:08.135Z,996.99
2017-06-29T02:57:30.294Z,996.96
2017-06-29T02:58:52.865Z,997
2017-06-29T03:00:14.674Z,996.98
2017-06-29T03:01:36.175Z,996.98
2017-06-29T03:02:57.964Z,996.93
2017-06-29T03:04:19.766Z,996.91
2017-06-29T03:05:41.964Z,996.86
2017-06-29T03:07:04.081Z,996.83
2017-06-29T03:08:25.614Z,996.8
2017-06-29T03:09:48.177Z,996.8
2017-06-29T03:11:09.973Z,996.81
2017-06-29T03:12:32.103Z,996.84
2017-06-29T03:13:53.914Z,996.84
2017-06-29T03:15:15.465Z,996.82
2017-06-29T03:16:37.268Z,996.85
2017-06-29T03:17:59.374Z,996.82
2017-06-29T03:19:21.904Z,996.77
2017-06-29T03:20:44.046Z,996.79
2017-06-29T03:22:05.968Z,996.79
2017-06-29T03:23:28.144Z,996.81
2017-06-29T03:24:50.274Z,996.83
2017-06-29T03:26:12.153Z,996.85
2017-06-29T03:27:34.272Z,996.85
2017-06-29T03:28:56.407Z,996.82
2017-06-29T03:30:18.904Z,996.81
2017-06-29T03:31:40.404Z,996.8
2017-06-29T03:33:02.555Z,996.78
2017-06-29T03:34:24.818Z,996.77
2017-06-29T03:35:46.995Z,996.77
2017-06-29T03:37:08.805Z,996.79
2017-06-29T03:38:30.633Z,996.77
2017-06-29T03:39:52.450Z,996.78
2017-06-29T03:41:14.913Z,996.77
2017-06-29T03:42:36.435Z,996.85
2017-06-29T03:43:58.574Z,996.86
2017-06-29T03:45:20.456Z,996.93
2017-06-29T03:46:43.263Z,996.93
2017-06-29T03:48:04.198Z,996.99
2017-06-29T03:49:25.703Z,996.98
2017-06-29T03:50:47.616Z,996.95
2017-06-29T03:52:09.817Z,996.97
2017-06-29T03:53:31.923Z,996.95
2017-06-29T03:54:54.375Z,997
2017-06-29T03:56:16.833Z,996.97
2017-06-29T03:57:38.691Z,996.95
2017-06-29T03:58:59.876Z,996.95
2017-06-29T04:00:22.315Z,996.93
2017-06-29T04:01:44.453Z,996.92
2017-06-29T04:03:06.204Z,996.9
2017-06-29T04:04:28.655Z,996.9
2017-06-29T04:05:50.476Z,996.82
2017-06-29T04:07:12.411Z,996.78
2017-06-29T04:08:34.275Z,996.81
2017-06-29T04:09:56.398Z,996.83
2017-06-29T04:11:18.314Z,996.82
2017-06-29T04:12:40.145Z,996.81
2017-06-29T04:14:02.643Z,996.76
2017-06-29T04:15:24.895Z,996.75
2017-06-29T04:16:46.432Z,996.67
2017-06-29T04:18:07.636Z,996.67
2017-06-29T04:19:29.729Z,996.62
2017-06-29T04:20:50.921Z,996.61
2017-06-29T04:22:12.794Z,996.57
2017-06-29T04:23:34.930Z,996.57
2017-06-29T04:24:57.042Z,996.56
2017-06-29T04:26:19.189Z,996.61
2017-06-29T04:27:41.324Z,996.63
2017-06-29T04:29:03.766Z,996.68
2017-06-29T04:30:25.686Z,996.7
2017-06-29T04:31:47.503Z,996.68
2017-06-29T04:33:09.296Z,996.62
2017-06-29T04:34:30.166Z,996.62
2017-06-29T04:35:52.305Z,996.62
2017-06-29T04:37:14.744Z,996.61
2017-06-29T04:38:36.614Z,996.61
2017-06-29T04:39:58.745Z,996.62
2017-06-29T04:41:20.283Z,996.67
2017-06-29T04:42:42.426Z,996.66
2017-06-29T04:44:04.359Z,996.59
2017-06-29T04:45:26.174Z,996.62
2017-06-29T04:46:47.754Z,996.63
2017-06-29T04:48:09.264Z,996.65
2017-06-29T04:49:31.094Z,996.67
2017-06-29T04:50:52.954Z,996.63
2017-06-29T04:52:15.223Z,996.62
2017-06-29T04:53:37.378Z,996.64
2017-06-29T04:54:59.508Z,996.63
2017-06-29T04:56:21.674Z,996.63
2017-06-29T04:57:43.487Z,996.64
2017-06-29T04:59:05.304Z,996.6
2017-06-29T05:00:27.474Z,996.58
2017-06-29T05:01:48.984Z,996.58
2017-06-29T05:03:11.105Z,996.54
2017-06-29T05:04:33.226Z,996.51
2017-06-29T05:05:55.374Z,996.55
2017-06-29T05:07:17.215Z,996.56
2017-06-29T05:08:39.292Z,996.54
2017-06-29T05:10:01.114Z,996.61
2017-06-29T05:11:22.927Z,996.65
2017-06-29T05:12:44.752Z,996.7
2017-06-29T05:14:06.615Z,996.71
2017-06-29T05:15:29.055Z,996.7
2017-06-29T05:16:51.047Z,996.71
2017-06-29T05:18:13.266Z,996.71
2017-06-29T05:19:36.014Z,996.71
2017-06-29T05:20:58.723Z,996.71
2017-06-29T05:22:20.581Z,996.7
2017-06-29T05:23:42.767Z,996.72
2017-06-29T05:25:05.235Z,996.71
2017-06-29T05:26:27.473Z,996.74
2017-06-29T05:27:49.296Z,996.73
2017-06-29T05:29:11.447Z,996.69
2017-06-29T05:30:34.256Z,996.73
2017-06-29T05:31:56.844Z,996.76
2017-06-29T05:33:18.975Z,996.74
2017-06-29T05:34:40.834Z,996.77
2017-06-29T05:36:03.586Z,996.77
2017-06-29T05:37:26.009Z,996.78
2017-06-29T05:38:47.205Z,996.8
2017-06-29T05:40:09.161Z,996.78
2017-06-29T05:41:31.010Z,996.79
2017-06-29T05:42:52.927Z,996.8
2017-06-29T05:44:14.429Z,996.81
2017-06-29T05:45:36.585Z,996.89
2017-06-29T05:46:58.669Z,996.88
2017-06-29T05:48:20.495Z,996.9
2017-06-29T05:49:42.355Z,996.86
2017-06-29T05:51:04.502Z,996.87
2017-06-29T05:52:26.365Z,996.89
2017-06-29T05:53:48.821Z,996.95
2017-06-29T05:55:11.288Z,996.93
2017-06-29T05:56:33.420Z,996.92
2017-06-29T05:57:55.216Z,996.95
2017-06-29T05:59:17.334Z,996.99
2017-06-29T06:00:38.843Z,997.02
2017-06-29T06:02:00.977Z,997.03
2017-06-29T06:03:23.604Z,997.04
2017-06-29T06:04:45.427Z,997
2017-06-29T06:06:08.042Z,997.01
2017-06-29T06:07:29.888Z,997.01
2017-06-29T06:08:52.298Z,997.06
2017-06-29T06:10:14.057Z,997.07
2017-06-29T06:11:36.513Z,997.13
2017-06-29T06:12:58.344Z,997.12
2017-06-29T06:14:21.114Z,997.16
2017-06-29T06:15:43.374Z,997.11
2017-06-29T06:17:05.254Z,997.11
2017-06-29T06:18:27.407Z,997.1
2017-06-29T06:19:50.236Z,997.06
2017-06-29T06:21:12.380Z,997.02
2017-06-29T06:22:34.613Z,997.01
2017-06-29T06:23:56.135Z,997.01
2017-06-29T06:25:18.624Z,996.95
2017-06-29T06:26:40.775Z,996.9
2017-06-29T06:28:03.238Z,996.93
2017-06-29T06:29:25.068Z,996.91
2017-06-29T06:30:47.509Z,996.97
2017-06-29T06:32:09.001Z,996.99
2017-06-29T06:33:30.818Z,996.98
2017-06-29T06:34:52.976Z,997
2017-06-29T06:36:15.384Z,996.99
2017-06-29T06:37:37.820Z,996.97
2017-06-29T06:39:00.125Z,996.99
2017-06-29T06:40:22.574Z,997
2017-06-29T06:41:45.057Z,997.05
2017-06-29T06:43:06.574Z,997.07
2017-06-29T06:44:29.135Z,997.1
2017-06-29T06:45:51.275Z,997.09
2017-06-29T06:47:13.759Z,997.06
2017-06-29T06:48:35.923Z,997.09
2017-06-29T06:49:57.438Z,997.09
2017-06-29T06:51:19.281Z,997.16
2017-06-29T06:52:41.795Z,997.2
2017-06-29T06:54:03.625Z,997.19
2017-06-29T06:55:25.795Z,997.19
2017-06-29T06:56:48.044Z,997.22
2017-06-29T06:58:10.588Z,997.23
2017-06-29T06:59:32.757Z,997.26
2017-06-29T07:00:54.896Z,997.28
2017-06-29T07:02:17.084Z,997.33
2017-06-29T07:03:39.575Z,997.31
2017-06-29T07:05:02.120Z,997.28
2017-06-29T07:06:23.334Z,997.3
2017-06-29T07:07:45.213Z,997.36
2017-06-29T07:09:07.714Z,997.36
2017-06-29T07:10:29.855Z,997.42
2017-06-29T07:11:51.701Z,997.48
2017-06-29T07:13:13.913Z,997.44
2017-06-29T07:14:36.368Z,997.36
2017-06-29T07:15:58.970Z,997.35
2017-06-29T07:17:20.807Z,997.43
2017-06-29T07:18:43.292Z,997.45
2017-06-29T07:20:05.794Z,997.42
2017-06-29T07:21:28.026Z,997.45
2017-06-29T07:22:49.845Z,997.41
2017-06-29T07:24:12.002Z,997.41
2017-06-29T07:25:34.500Z,997.43
2017-06-29T07:26:56.333Z,997.47
2017-06-29T07:28:18.793Z,997.49
2017-06-29T07:29:40.623Z,997.49
2017-06-29T07:31:03.174Z,997.47
2017-06-29T07:32:25.198Z,997.46
2017-06-29T07:33:47.343Z,997.45
2017-06-29T07:35:09.542Z,997.47
2017-06-29T07:36:31.413Z,997.51
2017-06-29T07:37:53.605Z,997.5
2017-06-29T07:39:15.729Z,997.47
2017-06-29T07:40:38.444Z,997.46
2017-06-29T07:42:00.642Z,997.46
2017-06-29T07:43:22.783Z,997.43
2017-06-29T07:44:45.275Z,997.48
2017-06-29T07:46:07.114Z,997.48
2017-06-29T07:47:29.284Z,997.47
2017-06-29T07:48:51.413Z,997.48
2017-06-29T07:50:13.913Z,997.46
2017-06-29T07:51:35.734Z,997.54
2017-06-29T07:52:57.904Z,997.53
2017-06-29T07:54:19.814Z,997.57
2017-06-29T07:55:41.773Z,997.58
2017-06-29T07:57:03.608Z,997.63
2017-06-29T07:58:26.395Z,997.64
2017-06-29T07:59:48.050Z,997.64
2017-06-29T08:01:10.265Z,997.61
2017-06-29T08:02:32.416Z,997.61
2017-06-29T08:03:54.995Z,997.62
2017-06-29T08:05:16.822Z,997.71
2017-06-29T08:06:39.010Z,997.71
2017-06-29T08:08:00.825Z,997.77
2017-06-29T08:09:23.588Z,997.79
2017-06-29T08:10:45.474Z,997.82
2017-06-29T08:12:08.043Z,997.78
2017-06-29T08:13:30.191Z,997.76
2017-06-29T08:14:52.126Z,997.78
2017-06-29T08:16:14.577Z,997.79
2017-06-29T08:17:36.234Z,997.72
2017-06-29T08:18:58.084Z,997.76
2017-06-29T08:20:21.044Z,997.72
2017-06-29T08:21:43.501Z,997.74
2017-06-29T08:23:05.693Z,997.78
2017-06-29T08:24:27.204Z,997.8
2017-06-29T08:25:49.297Z,997.84
2017-06-29T08:27:10.945Z,997.84
2017-06-29T08:28:33.431Z,997.83
2017-06-29T08:29:55.959Z,997.77
2017-06-29T08:31:18.803Z,997.75
2017-06-29T08:32:40.322Z,997.77
2017-06-29T08:34:02.584Z,997.8
2017-06-29T08:35:25.071Z,997.79
2017-06-29T08:36:47.224Z,997.8
2017-06-29T08:38:09.403Z,997.76
2017-06-29T08:39:31.026Z,997.75
2017-06-29T08:40:53.562Z,997.76
2017-06-29T08:42:15.934Z,997.72
2017-06-29T08:43:37.454Z,997.72
2017-06-29T08:44:59.394Z,997.64
2017-06-29T08:46:21.234Z,997.65
2017-06-29T08:47:43.636Z,997.61
2017-06-29T08:49:05.763Z,997.6
2017-06-29T08:50:28.244Z,997.58
2017-06-29T08:51:50.724Z,997.56
2017-06-29T08:53:13.374Z,997.51
2017-06-29T08:54:35.510Z,997.55
2017-06-29T08:55:57.647Z,997.56
2017-06-29T08:57:19.469Z,997.54
2017-06-29T08:58:41.964Z,997.56
2017-06-29T09:00:04.441Z,997.56
2017-06-29T09:01:26.905Z,997.64
2017-06-29T09:02:49.385Z,997.62
2017-06-29T09:04:11.213Z,997.65
2017-06-29T09:05:33.023Z,997.67
2017-06-29T09:06:55.173Z,997.66
2017-06-29T09:08:17.652Z,997.68
2017-06-29T09:09:40.515Z,997.68
2017-06-29T09:11:02.675Z,997.66
2017-06-29T09:12:24.851Z,997.67
2017-06-29T09:13:46.785Z,997.67
2017-06-29T09:15:09.613Z,997.64
2017-06-29T09:16:31.781Z,997.66
2017-06-29T09:17:53.623Z,997.71
2017-06-29T09:19:15.785Z,997.71
2017-06-29T09:20:37.916Z,997.73
2017-06-29T09:21:59.744Z,997.77
2017-06-29T09:23:21.585Z,997.79
2017-06-29T09:24:43.434Z,997.81
2017-06-29T09:26:05.854Z,997.78
2017-06-29T09:27:28.111Z,997.81
2017-06-29T09:28:50.268Z,997.78
2017-06-29T09:30:12.422Z,997.8
2017-06-29T09:31:33.875Z,997.75
2017-06-29T09:32:56.033Z,997.79
2017-06-29T09:34:17.957Z,997.79
2017-06-29T09:35:39.912Z,997.84
2017-06-29T09:37:02.276Z,997.82
2017-06-29T09:38:24.422Z,997.82
2017-06-29T09:39:45.947Z,997.81
2017-06-29T09:41:08.140Z,997.81
2017-06-29T09:42:30.057Z,997.76
2017-06-29T09:43:52.532Z,997.79
2017-06-29T09:45:14.462Z,997.76
2017-06-29T09:46:36.142Z,997.7
2017-06-29T09:47:58.543Z,997.71
2017-06-29T09:49:20.413Z,997.67
2017-06-29T09:50:42.892Z,997.64
2017-06-29T09:52:04.424Z,997.6
2017-06-29T09:53:26.316Z,997.54
2017-06-29T09:54:48.777Z,997.56
2017-06-29T09:56:10.924Z,997.59
2017-06-29T09:57:33.390Z,997.56
2017-06-29T09:58:55.638Z,997.57
2017-06-29T10:00:17.813Z,997.58
2017-06-29T10:01:39.747Z,997.62
2017-06-29T10:03:01.904Z,997.58
2017-06-29T10:04:24.331Z,997.55
2017-06-29T10:05:45.873Z,997.59
2017-06-29T10:07:07.706Z,997.5
2017-06-29T10:08:30.175Z,997.52
2017-06-29T10:09:52.252Z,997.5
2017-06-29T10:11:14.703Z,997.58
2017-06-29T10:12:36.544Z,997.58
2017-06-29T10:13:58.713Z,997.6
2017-06-29T10:15:21.013Z,997.68
2017-06-29T10:16:42.872Z,997.65
2017-06-29T10:18:04.703Z,997.67
2017-06-29T10:19:27.207Z,997.66
2017-06-29T10:20:49.982Z,997.67
2017-06-29T10:22:12.211Z,997.66
2017-06-29T10:23:34.698Z,997.69
2017-06-29T10:24:56.198Z,997.65
2017-06-29T10:26:19.012Z,997.66
2017-06-29T10:27:41.493Z,997.64
2017-06-29T10:29:03.637Z,997.67
2017-06-29T10:30:25.773Z,997.63
2017-06-29T10:31:47.861Z,997.65
2017-06-29T10:33:10.013Z,997.64
2017-06-29T10:34:31.966Z,997.6
2017-06-29T10:35:53.790Z,997.65
2017-06-29T10:37:16.182Z,997.68
2017-06-29T10:38:38.714Z,997.68
2017-06-29T10:40:00.883Z,997.69
2017-06-29T10:41:23.163Z,997.71
2017-06-29T10:42:45.622Z,997.69
2017-06-29T10:44:07.835Z,997.71
2017-06-29T10:45:30.315Z,997.71
2017-06-29T10:46:52.153Z,997.77
2017-06-29T10:48:14.548Z,997.77
2017-06-29T10:49:37.004Z,997.78
2017-06-29T10:50:59.564Z,997.82
2017-06-29T10:52:21.823Z,997.8
2017-06-29T10:53:44.652Z,997.84
2017-06-29T10:55:06.204Z,997.84
2017-06-29T10:56:28.762Z,997.8
2017-06-29T10:57:49.973Z,997.83
2017-06-29T10:59:12.472Z,997.82
2017-06-29T11:00:34.670Z,997.81
2017-06-29T11:01:57.133Z,997.77
2017-06-29T11:03:19.615Z,997.71
2017-06-29T11:04:42.431Z,997.67
2017-06-29T11:06:04.911Z,997.73
2017-06-29T11:07:27.124Z,997.72
2017-06-29T11:08:49.273Z,997.71
2017-06-29T11:10:11.972Z,997.65
2017-06-29T11:11:33.912Z,997.69
2017-06-29T11:12:56.388Z,997.65
2017-06-29T11:14:18.846Z,997.66
2017-06-29T11:15:40.886Z,997.64
2017-06-29T11:17:02.753Z,997.7
2017-06-29T11:18:24.908Z,997.64
2017-06-29T11:19:47.203Z,997.63
2017-06-29T11:21:09.639Z,997.65
2017-06-29T11:22:31.899Z,997.6
2017-06-29T11:23:54.067Z,997.68
2017-06-29T11:25:16.565Z,997.61
2017-06-29T11:26:38.734Z,997.6
2017-06-29T11:28:00.579Z,997.6
2017-06-29T11:29:22.423Z,997.57
2017-06-29T11:30:44.270Z,997.51
2017-06-29T11:32:06.462Z,997.48
2017-06-29T11:33:28.297Z,997.57
2017-06-29T11:34:50.113Z,997.57
2017-06-29T11:36:12.301Z,997.61
2017-06-29T11:37:34.698Z,997.57
2017-06-29T11:38:56.981Z,997.6
2017-06-29T11:40:19.138Z,997.54
2017-06-29T11:41:41.380Z,997.56
2017-06-29T11:43:03.733Z,997.7
2017-06-29T11:44:25.575Z,997.71
2017-06-29T11:45:47.727Z,997.74
2017-06-29T11:47:09.602Z,997.72
2017-06-29T11:48:32.374Z,997.73
2017-06-29T11:49:54.852Z,997.73
2017-06-29T11:51:16.711Z,997.73
2017-06-29T11:52:38.551Z,997.81
2017-06-29T11:54:01.008Z,997.77
2017-06-29T11:55:22.532Z,997.78
2017-06-29T11:56:45.000Z,997.76
2017-06-29T11:58:07.222Z,997.77
2017-06-29T11:59:30.039Z,997.78
2017-06-29T12:00:52.492Z,997.83
2017-06-29T12:02:14.650Z,997.83
2017-06-29T12:03:36.161Z,997.77
2017-06-29T12:04:58.593Z,997.69
2017-06-29T12:06:20.712Z,997.63
2017-06-29T12:07:42.923Z,997.62
2017-06-29T12:09:05.093Z,997.6
2017-06-29T12:10:27.502Z,997.59
2017-06-29T12:11:49.980Z,997.54
2017-06-29T12:13:11.883Z,997.59
2017-06-29T12:14:34.042Z,997.58
2017-06-29T12:15:56.560Z,997.55
2017-06-29T12:17:18.722Z,997.51
2017-06-29T12:18:40.883Z,997.49
2017-06-29T12:20:03.392Z,997.48
2017-06-29T12:21:25.820Z,997.46
2017-06-29T12:22:48.354Z,997.49
2017-06-29T12:24:10.209Z,997.51
2017-06-29T12:25:32.762Z,997.49
2017-06-29T12:26:54.919Z,997.45
2017-06-29T12:28:17.102Z,997.47
2017-06-29T12:29:39.234Z,997.42
2017-06-29T12:31:01.213Z,997.35
2017-06-29T12:32:23.783Z,997.39
2017-06-29T12:33:45.915Z,997.35
2017-06-29T12:35:08.478Z,997.32
2017-06-29T12:36:30.917Z,997.37
2017-06-29T12:37:53.242Z,997.34
2017-06-29T12:39:15.404Z,997.37
2017-06-29T12:40:36.928Z,997.38
2017-06-29T12:41:58.442Z,997.36
2017-06-29T12:43:20.323Z,997.35
2017-06-29T12:44:42.166Z,997.34
2017-06-29T12:46:04.312Z,997.35
2017-06-29T12:47:26.463Z,997.39
2017-06-29T12:48:48.923Z,997.46
2017-06-29T12:50:11.048Z,997.45
2017-06-29T12:51:32.882Z,997.43
2017-06-29T12:52:54.771Z,997.39
2017-06-29T12:54:17.542Z,997.37
2017-06-29T12:55:39.486Z,997.47
2017-06-29T12:57:01.633Z,997.43
2017-06-29T12:58:23.546Z,997.42
2017-06-29T12:59:45.107Z,997.43
2017-06-29T13:01:07.567Z,997.4
2017-06-29T13:02:29.780Z,997.46
2017-06-29T13:03:51.278Z,997.42
2017-06-29T13:05:14.003Z,997.44
2017-06-29T13:06:36.608Z,997.53
2017-06-29T13:07:58.451Z,997.56
2017-06-29T13:09:20.653Z,997.59
2017-06-29T13:10:42.558Z,997.63
2017-06-29T13:12:05.002Z,997.69
2017-06-29T13:13:26.550Z,997.7
2017-06-29T13:14:48.539Z,997.7
2017-06-29T13:16:10.784Z,997.73
2017-06-29T13:17:33.299Z,997.72
2017-06-29T13:18:55.532Z,997.72
2017-06-29T13:20:17.462Z,997.68
2017-06-29T13:21:40.305Z,997.65
2017-06-29T13:23:02.138Z,997.66
2017-06-29T13:24:23.992Z,997.71
2017-06-29T13:25:46.494Z,997.71
2017-06-29T13:27:08.888Z,997.67
2017-06-29T13:28:30.713Z,997.66
2017-06-29T13:29:52.863Z,997.7
2017-06-29T13:31:15.016Z,997.75
2017-06-29T13:32:37.790Z,997.81
2017-06-29T13:33:59.318Z,997.71
2017-06-29T13:35:21.800Z,997.77
2017-06-29T13:36:43.963Z,997.69
2017-06-29T13:38:05.792Z,997.71
2017-06-29T13:39:28.172Z,997.7
2017-06-29T13:40:49.983Z,997.73
2017-06-29T13:42:11.499Z,997.78
2017-06-29T13:43:34.042Z,997.84
2017-06-29T13:44:56.484Z,997.84
2017-06-29T13:46:18.014Z,997.85
2017-06-29T13:47:40.343Z,997.83
2017-06-29T13:49:03.052Z,997.86
2017-06-29T13:50:25.188Z,997.83
2017-06-29T13:51:47.733Z,997.85
2017-06-29T13:53:09.581Z,997.82
2017-06-29T13:54:32.075Z,997.78
2017-06-29T13:55:53.902Z,997.75
2017-06-29T13:57:15.736Z,997.77
2017-06-29T13:58:37.900Z,997.83
2017-06-29T14:00:00.302Z,997.79
2017-06-29T14:01:22.454Z,997.81
2017-06-29T14:02:44.610Z,997.76
2017-06-29T14:04:06.434Z,997.72
2017-06-29T14:05:29.258Z,997.74
2017-06-29T14:06:51.092Z,997.73
2017-06-29T14:08:12.608Z,997.76
2017-06-29T14:09:34.762Z,997.72
2017-06-29T14:10:56.623Z,997.72
2017-06-29T14:12:19.031Z,997.76
2017-06-29T14:13:41.162Z,997.73
2017-06-29T14:15:03.318Z,997.74
2017-06-29T14:16:26.083Z,997.73
2017-06-29T14:17:48.381Z,997.77
2017-06-29T14:19:10.842Z,997.76
2017-06-29T14:20:33.371Z,997.78
2017-06-29T14:21:55.820Z,997.78
2017-06-29T14:23:17.454Z,997.8
2017-06-29T14:24:39.988Z,997.82
2017-06-29T14:26:01.842Z,997.82
2017-06-29T14:27:23.349Z,997.8
2017-06-29T14:28:45.794Z,997.79
2017-06-29T14:30:07.952Z,997.79
2017-06-29T14:31:29.473Z,997.8
2017-06-29T14:32:52.064Z,997.87
2017-06-29T14:34:13.878Z,997.85
2017-06-29T14:35:36.143Z,997.87
2017-06-29T14:36:58.604Z,997.92
2017-06-29T14:38:20.774Z,997.94
2017-06-29T14:39:42.940Z,997.94
2017-06-29T14:41:05.077Z,997.93
2017-06-29T14:42:27.534Z,997.94
2017-06-29T14:43:50.501Z,997.91
2017-06-29T14:45:12.951Z,997.87
2017-06-29T14:46:34.903Z,997.92
2017-06-29T14:47:57.364Z,997.93
2017-06-29T14:49:20.285Z,997.91
2017-06-29T14:50:42.421Z,997.95
2017-06-29T14:52:04.591Z,997.96
2017-06-29T14:53:26.109Z,997.93
2017-06-29T14:54:47.945Z,997.89
2017-06-29T14:56:10.447Z,997.94
2017-06-29T14:57:32.932Z,997.9
2017-06-29T14:58:54.801Z,997.86
2017-06-29T15:00:16.615Z,997.89
2017-06-29T15:01:38.470Z,997.88
2017-06-29T15:03:00.280Z,997.85
2017-06-29T15:04:22.431Z,997.83
2017-06-29T15:05:44.889Z,997.86
2017-06-29T15:07:07.334Z,997.83
2017-06-29T15:08:29.484Z,997.82
2017-06-29T15:09:51.953Z,997.84
2017-06-29T15:11:14.123Z,997.82
2017-06-29T15:12:36.263Z,997.88
2017-06-29T15:13:58.525Z,997.84
2017-06-29T15:15:21.099Z,997.86
2017-06-29T15:16:43.549Z,997.92
2017-06-29T15:18:06.025Z,997.9
2017-06-29T15:19:28.557Z,997.9
2017-06-29T15:20:50.691Z,997.94
2017-06-29T15:22:13.544Z,997.91
2017-06-29T15:23:35.393Z,997.92
2017-06-29T15:24:56.586Z,997.96
2017-06-29T15:26:18.459Z,997.96
2017-06-29T15:27:41.276Z,997.99
2017-06-29T15:29:03.154Z,997.97
2017-06-29T15:30:25.626Z,997.96
2017-06-29T15:31:48.244Z,997.97
2017-06-29T15:33:10.745Z,998.01
2017-06-29T15:34:32.902Z,998.05
2017-06-29T15:35:55.343Z,998.13
2017-06-29T15:37:17.597Z,998.21
2017-06-29T15:38:39.993Z,998.18
2017-06-29T15:40:02.441Z,998.31
2017-06-29T15:41:24.576Z,998.35
2017-06-29T15:42:46.720Z,998.39
2017-06-29T15:44:09.464Z,998.36
2017-06-29T15:45:31.923Z,998.44
2017-06-29T15:46:54.076Z,998.45
2017-06-29T15:48:16.521Z,998.46
2017-06-29T15:49:39.034Z,998.45
2017-06-29T15:51:01.198Z,998.45
2017-06-29T15:52:23.040Z,998.41
2017-06-29T15:53:45.563Z,998.45
2017-06-29T15:55:07.974Z,998.55
2017-06-29T15:56:29.797Z,998.61
2017-06-29T15:57:51.949Z,998.71
2017-06-29T15:59:14.143Z,998.79
2017-06-29T16:00:36.459Z,998.84
